sensor_id;sensor_type;location;lat;lon;timestamp;P1;durP1;ratioP1;P2;durP2;ratioP2
3924;SDS011;1977;52.274;10.518;2024-01-06T00:00:08;17.50;;;13.23;;
3924;SDS011;1977;52.274;10.518;2024-01-06T00:02:36;18.33;;;14.67;;
3924;SDS011;1977;52.274;10.518;2024-01-06T00:05:03;17.13;;;14.97;;
3924;SDS011;1977;52.274;10.518;2024-01-06T00:07:30;19.20;;;12.67;;
3924;SDS011;1977;52.274;10.518;2024-01-06T00:09:57;16.20;;;13.50;;
3924;SDS011;1977;52.274;10.518;2024-01-06T00:12:25;19.80;;;12.60;;
3924;SDS011;1977;52.274;10.518;2024-01-06T00:14:52;15.40;;;12.77;;
3924;SDS011;1977;52.274;10.518;2024-01-06T00:17:18;20.07;;;13.63;;
3924;SDS011;1977;52.274;10.518;2024-01-06T00:19:45;15.77;;;12.00;;
3924;SDS011;1977;52.274;10.518;2024-01-06T00:22:15;20.17;;;12.67;;
3924;SDS011;1977;52.274;10.518;2024-01-06T00:24:42;15.43;;;11.80;;
3924;SDS011;1977;52.274;10.518;2024-01-06T00:27:09;18.00;;;12.77;;
3924;SDS011;1977;52.274;10.518;2024-01-06T00:29:37;19.40;;;12.30;;
3924;SDS011;1977;52.274;10.518;2024-01-06T00:32:04;16.57;;;12.63;;
3924;SDS011;1977;52.274;10.518;2024-01-06T00:34:32;17.23;;;12.17;;
3924;SDS011;1977;52.274;10.518;2024-01-06T00:36:58;15.53;;;11.40;;
3924;SDS011;1977;52.274;10.518;2024-01-06T00:39:25;16.90;;;12.60;;
3924;SDS011;1977;52.274;10.518;2024-01-06T00:41:52;20.17;;;12.20;;
3924;SDS011;1977;52.274;10.518;2024-01-06T00:44:19;17.67;;;12.60;;
3924;SDS011;1977;52.274;10.518;2024-01-06T00:46:47;16.47;;;12.80;;
3924;SDS011;1977;52.274;10.518;2024-01-06T00:49:14;17.53;;;13.40;;
3924;SDS011;1977;52.274;10.518;2024-01-06T00:51:40;18.90;;;13.07;;
3924;SDS011;1977;52.274;10.518;2024-01-06T00:54:07;19.63;;;14.13;;
3924;SDS011;1977;52.274;10.518;2024-01-06T00:56:34;19.77;;;12.57;;
3924;SDS011;1977;52.274;10.518;2024-01-06T00:59:01;16.10;;;12.47;;
3924;SDS011;1977;52.274;10.518;2024-01-06T01:01:28;19.30;;;12.80;;
3924;SDS011;1977;52.274;10.518;2024-01-06T01:03:56;20.27;;;13.20;;
3924;SDS011;1977;52.274;10.518;2024-01-06T01:06:23;19.73;;;12.97;;
3924;SDS011;1977;52.274;10.518;2024-01-06T01:08:50;19.93;;;14.07;;
3924;SDS011;1977;52.274;10.518;2024-01-06T01:11:16;18.70;;;13.33;;
3924;SDS011;1977;52.274;10.518;2024-01-06T01:13:45;23.50;;;14.00;;
3924;SDS011;1977;52.274;10.518;2024-01-06T01:16:11;20.33;;;14.43;;
3924;SDS011;1977;52.274;10.518;2024-01-06T01:18:38;21.23;;;13.87;;
3924;SDS011;1977;52.274;10.518;2024-01-06T01:21:07;23.23;;;15.10;;
3924;SDS011;1977;52.274;10.518;2024-01-06T01:23:33;19.50;;;14.43;;
3924;SDS011;1977;52.274;10.518;2024-01-06T01:26:00;19.77;;;14.13;;
3924;SDS011;1977;52.274;10.518;2024-01-06T01:28:27;20.43;;;14.90;;
3924;SDS011;1977;52.274;10.518;2024-01-06T01:30:54;22.07;;;14.90;;
3924;SDS011;1977;52.274;10.518;2024-01-06T01:33:20;22.47;;;15.10;;
3924;SDS011;1977;52.274;10.518;2024-01-06T01:35:47;21.97;;;14.93;;
3924;SDS011;1977;52.274;10.518;2024-01-06T01:38:15;23.37;;;16.97;;
3924;SDS011;1977;52.274;10.518;2024-01-06T01:40:42;25.90;;;16.53;;
3924;SDS011;1977;52.274;10.518;2024-01-06T01:43:15;24.27;;;15.20;;
3924;SDS011;1977;52.274;10.518;2024-01-06T01:45:42;21.97;;;15.30;;
3924;SDS011;1977;52.274;10.518;2024-01-06T01:48:09;23.50;;;15.27;;
3924;SDS011;1977;52.274;10.518;2024-01-06T01:50:35;24.77;;;15.30;;
3924;SDS011;1977;52.274;10.518;2024-01-06T01:53:03;22.10;;;13.83;;
3924;SDS011;1977;52.274;10.518;2024-01-06T01:55:31;22.07;;;14.70;;
3924;SDS011;1977;52.274;10.518;2024-01-06T01:57:58;25.90;;;14.50;;
3924;SDS011;1977;52.274;10.518;2024-01-06T02:00:25;20.90;;;14.67;;
3924;SDS011;1977;52.274;10.518;2024-01-06T02:02:52;23.93;;;14.43;;
3924;SDS011;1977;52.274;10.518;2024-01-06T02:05:18;19.60;;;13.03;;
3924;SDS011;1977;52.274;10.518;2024-01-06T02:07:45;19.53;;;13.50;;
3924;SDS011;1977;52.274;10.518;2024-01-06T02:10:12;23.37;;;14.40;;
3924;SDS011;1977;52.274;10.518;2024-01-06T02:12:41;19.60;;;13.40;;
3924;SDS011;1977;52.274;10.518;2024-01-06T02:15:08;21.17;;;14.23;;
3924;SDS011;1977;52.274;10.518;2024-01-06T02:17:35;17.30;;;12.67;;
3924;SDS011;1977;52.274;10.518;2024-01-06T02:20:01;16.47;;;11.83;;
3924;SDS011;1977;52.274;10.518;2024-01-06T02:22:30;21.60;;;13.87;;
3924;SDS011;1977;52.274;10.518;2024-01-06T02:24:57;18.30;;;13.17;;
3924;SDS011;1977;52.274;10.518;2024-01-06T02:27:24;16.80;;;12.70;;
3924;SDS011;1977;52.274;10.518;2024-01-06T02:29:51;17.67;;;12.43;;
3924;SDS011;1977;52.274;10.518;2024-01-06T02:32:17;17.03;;;12.13;;
3924;SDS011;1977;52.274;10.518;2024-01-06T02:34:44;21.43;;;14.30;;
3924;SDS011;1977;52.274;10.518;2024-01-06T02:37:11;20.63;;;13.60;;
3924;SDS011;1977;52.274;10.518;2024-01-06T02:39:39;19.57;;;13.80;;
3924;SDS011;1977;52.274;10.518;2024-01-06T02:42:06;22.27;;;14.43;;
3924;SDS011;1977;52.274;10.518;2024-01-06T02:44:32;22.10;;;13.53;;
3924;SDS011;1977;52.274;10.518;2024-01-06T02:46:59;18.63;;;12.77;;
3924;SDS011;1977;52.274;10.518;2024-01-06T02:49:26;23.97;;;14.87;;
3924;SDS011;1977;52.274;10.518;2024-01-06T02:51:53;21.93;;;14.10;;
3924;SDS011;1977;52.274;10.518;2024-01-06T02:54:19;21.30;;;13.53;;
3924;SDS011;1977;52.274;10.518;2024-01-06T02:56:47;18.13;;;12.37;;
3924;SDS011;1977;52.274;10.518;2024-01-06T02:59:14;18.83;;;13.30;;
3924;SDS011;1977;52.274;10.518;2024-01-06T03:01:41;19.30;;;13.07;;
3924;SDS011;1977;52.274;10.518;2024-01-06T03:04:08;24.30;;;14.47;;
3924;SDS011;1977;52.274;10.518;2024-01-06T03:06:35;19.57;;;13.00;;
3924;SDS011;1977;52.274;10.518;2024-01-06T03:09:01;18.50;;;12.50;;
3924;SDS011;1977;52.274;10.518;2024-01-06T03:11:28;22.10;;;14.50;;
3924;SDS011;1977;52.274;10.518;2024-01-06T03:13:56;21.87;;;12.73;;
3924;SDS011;1977;52.274;10.518;2024-01-06T03:16:23;23.17;;;15.10;;
3924;SDS011;1977;52.274;10.518;2024-01-06T03:18:50;20.70;;;14.00;;
3924;SDS011;1977;52.274;10.518;2024-01-06T03:21:17;22.43;;;14.70;;
3924;SDS011;1977;52.274;10.518;2024-01-06T03:23:44;21.37;;;14.27;;
3924;SDS011;1977;52.274;10.518;2024-01-06T03:26:12;22.53;;;14.50;;
3924;SDS011;1977;52.274;10.518;2024-01-06T03:28:38;27.40;;;15.50;;
3924;SDS011;1977;52.274;10.518;2024-01-06T03:31:07;27.10;;;15.43;;
3924;SDS011;1977;52.274;10.518;2024-01-06T03:33:33;20.87;;;13.93;;
3924;SDS011;1977;52.274;10.518;2024-01-06T03:36:03;23.50;;;16.70;;
3924;SDS011;1977;52.274;10.518;2024-01-06T03:38:31;23.27;;;14.67;;
3924;SDS011;1977;52.274;10.518;2024-01-06T03:40:58;25.33;;;15.00;;
3924;SDS011;1977;52.274;10.518;2024-01-06T03:43:25;24.57;;;15.43;;
3924;SDS011;1977;52.274;10.518;2024-01-06T03:45:51;26.80;;;16.93;;
3924;SDS011;1977;52.274;10.518;2024-01-06T03:48:21;20.00;;;13.80;;
3924;SDS011;1977;52.274;10.518;2024-01-06T03:50:48;22.97;;;14.73;;
3924;SDS011;1977;52.274;10.518;2024-01-06T03:53:15;24.23;;;15.33;;
3924;SDS011;1977;52.274;10.518;2024-01-06T03:55:42;23.90;;;14.97;;
3924;SDS011;1977;52.274;10.518;2024-01-06T03:58:09;22.13;;;14.47;;
3924;SDS011;1977;52.274;10.518;2024-01-06T04:00:36;25.03;;;15.07;;
3924;SDS011;1977;52.274;10.518;2024-01-06T04:03:02;21.60;;;14.10;;
3924;SDS011;1977;52.274;10.518;2024-01-06T04:05:32;23.97;;;14.53;;
3924;SDS011;1977;52.274;10.518;2024-01-06T04:07:58;26.37;;;15.20;;
3924;SDS011;1977;52.274;10.518;2024-01-06T04:10:25;25.50;;;14.70;;
3924;SDS011;1977;52.274;10.518;2024-01-06T04:12:52;23.60;;;14.23;;
3924;SDS011;1977;52.274;10.518;2024-01-06T04:15:19;23.47;;;13.83;;
3924;SDS011;1977;52.274;10.518;2024-01-06T04:17:48;22.87;;;15.03;;
3924;SDS011;1977;52.274;10.518;2024-01-06T04:20:15;19.60;;;13.90;;
3924;SDS011;1977;52.274;10.518;2024-01-06T04:22:43;30.50;;;15.70;;
3924;SDS011;1977;52.274;10.518;2024-01-06T04:25:10;23.73;;;14.37;;
3924;SDS011;1977;52.274;10.518;2024-01-06T04:27:36;21.07;;;13.63;;
3924;SDS011;1977;52.274;10.518;2024-01-06T04:30:03;21.20;;;13.60;;
3924;SDS011;1977;52.274;10.518;2024-01-06T04:32:31;27.03;;;14.83;;
3924;SDS011;1977;52.274;10.518;2024-01-06T04:34:57;20.57;;;13.93;;
3924;SDS011;1977;52.274;10.518;2024-01-06T04:37:24;21.73;;;14.00;;
3924;SDS011;1977;52.274;10.518;2024-01-06T04:39:52;26.67;;;14.50;;
3924;SDS011;1977;52.274;10.518;2024-01-06T04:42:19;21.60;;;13.30;;
3924;SDS011;1977;52.274;10.518;2024-01-06T04:44:47;21.53;;;13.30;;
3924;SDS011;1977;52.274;10.518;2024-01-06T04:47:14;25.37;;;13.80;;
3924;SDS011;1977;52.274;10.518;2024-01-06T04:49:40;21.17;;;13.87;;
3924;SDS011;1977;52.274;10.518;2024-01-06T04:52:07;20.60;;;13.50;;
3924;SDS011;1977;52.274;10.518;2024-01-06T04:54:34;19.90;;;13.13;;
3924;SDS011;1977;52.274;10.518;2024-01-06T04:57:02;19.40;;;13.97;;
3924;SDS011;1977;52.274;10.518;2024-01-06T04:59:30;18.77;;;12.87;;
3924;SDS011;1977;52.274;10.518;2024-01-06T05:01:57;21.00;;;13.73;;
3924;SDS011;1977;52.274;10.518;2024-01-06T05:04:24;23.97;;;13.60;;
3924;SDS011;1977;52.274;10.518;2024-01-06T05:06:51;20.20;;;13.07;;
3924;SDS011;1977;52.274;10.518;2024-01-06T05:09:18;22.30;;;13.00;;
3924;SDS011;1977;52.274;10.518;2024-01-06T05:11:45;23.07;;;13.60;;
3924;SDS011;1977;52.274;10.518;2024-01-06T05:14:13;21.30;;;13.30;;
3924;SDS011;1977;52.274;10.518;2024-01-06T05:16:40;22.00;;;13.20;;
3924;SDS011;1977;52.274;10.518;2024-01-06T05:19:07;25.60;;;14.53;;
3924;SDS011;1977;52.274;10.518;2024-01-06T05:21:34;22.40;;;13.53;;
3924;SDS011;1977;52.274;10.518;2024-01-06T05:24:01;20.73;;;13.57;;
3924;SDS011;1977;52.274;10.518;2024-01-06T05:26:28;20.67;;;13.27;;
3924;SDS011;1977;52.274;10.518;2024-01-06T05:28:55;22.57;;;14.50;;
3924;SDS011;1977;52.274;10.518;2024-01-06T05:31:23;21.60;;;13.60;;
3924;SDS011;1977;52.274;10.518;2024-01-06T05:33:50;19.50;;;13.33;;
3924;SDS011;1977;52.274;10.518;2024-01-06T05:36:18;24.57;;;14.17;;
3924;SDS011;1977;52.274;10.518;2024-01-06T05:38:45;22.10;;;13.10;;
3924;SDS011;1977;52.274;10.518;2024-01-06T05:41:12;22.80;;;14.70;;
3924;SDS011;1977;52.274;10.518;2024-01-06T05:43:38;22.23;;;13.87;;
3924;SDS011;1977;52.274;10.518;2024-01-06T05:46:05;21.03;;;13.17;;
3924;SDS011;1977;52.274;10.518;2024-01-06T05:48:34;22.47;;;13.53;;
3924;SDS011;1977;52.274;10.518;2024-01-06T05:51:01;22.37;;;13.40;;
3924;SDS011;1977;52.274;10.518;2024-01-06T05:53:30;24.13;;;14.33;;
3924;SDS011;1977;52.274;10.518;2024-01-06T05:55:57;20.60;;;13.17;;
3924;SDS011;1977;52.274;10.518;2024-01-06T05:58:24;18.40;;;13.80;;
3924;SDS011;1977;52.274;10.518;2024-01-06T06:00:51;22.13;;;13.30;;
3924;SDS011;1977;52.274;10.518;2024-01-06T06:03:17;22.03;;;13.33;;
3924;SDS011;1977;52.274;10.518;2024-01-06T06:05:45;21.20;;;13.97;;
3924;SDS011;1977;52.274;10.518;2024-01-06T06:08:12;21.00;;;12.90;;
3924;SDS011;1977;52.274;10.518;2024-01-06T06:10:39;21.27;;;13.13;;
3924;SDS011;1977;52.274;10.518;2024-01-06T06:13:17;19.87;;;13.90;;
3924;SDS011;1977;52.274;10.518;2024-01-06T06:15:44;19.63;;;12.13;;
3924;SDS011;1977;52.274;10.518;2024-01-06T06:18:11;20.00;;;11.97;;
3924;SDS011;1977;52.274;10.518;2024-01-06T06:20:37;19.83;;;12.40;;
3924;SDS011;1977;52.274;10.518;2024-01-06T06:23:08;19.37;;;12.40;;
3924;SDS011;1977;52.274;10.518;2024-01-06T06:25:36;22.00;;;11.80;;
3924;SDS011;1977;52.274;10.518;2024-01-06T06:28:04;20.33;;;12.87;;
3924;SDS011;1977;52.274;10.518;2024-01-06T06:30:31;19.67;;;12.10;;
3924;SDS011;1977;52.274;10.518;2024-01-06T06:32:58;19.03;;;13.20;;
3924;SDS011;1977;52.274;10.518;2024-01-06T06:35:25;20.70;;;13.80;;
3924;SDS011;1977;52.274;10.518;2024-01-06T06:37:52;19.47;;;12.00;;
3924;SDS011;1977;52.274;10.518;2024-01-06T06:40:20;22.37;;;13.97;;
3924;SDS011;1977;52.274;10.518;2024-01-06T06:42:47;23.60;;;13.77;;
3924;SDS011;1977;52.274;10.518;2024-01-06T06:45:14;21.30;;;11.57;;
3924;SDS011;1977;52.274;10.518;2024-01-06T06:47:41;22.83;;;13.63;;
3924;SDS011;1977;52.274;10.518;2024-01-06T06:50:07;19.47;;;11.40;;
3924;SDS011;1977;52.274;10.518;2024-01-06T06:52:34;21.60;;;14.07;;
3924;SDS011;1977;52.274;10.518;2024-01-06T06:55:01;23.77;;;12.97;;
3924;SDS011;1977;52.274;10.518;2024-01-06T06:57:29;20.60;;;13.00;;
3924;SDS011;1977;52.274;10.518;2024-01-06T06:59:57;20.33;;;13.87;;
3924;SDS011;1977;52.274;10.518;2024-01-06T07:02:25;16.77;;;11.50;;
3924;SDS011;1977;52.274;10.518;2024-01-06T07:04:51;20.87;;;13.53;;
3924;SDS011;1977;52.274;10.518;2024-01-06T07:07:18;21.43;;;13.07;;
3924;SDS011;1977;52.274;10.518;2024-01-06T07:09:45;24.53;;;14.00;;
3924;SDS011;1977;52.274;10.518;2024-01-06T07:12:12;23.13;;;13.27;;
3924;SDS011;1977;52.274;10.518;2024-01-06T07:14:40;25.77;;;14.80;;
3924;SDS011;1977;52.274;10.518;2024-01-06T07:17:06;23.83;;;14.40;;
3924;SDS011;1977;52.274;10.518;2024-01-06T07:19:34;23.43;;;14.63;;
3924;SDS011;1977;52.274;10.518;2024-01-06T07:22:02;26.73;;;16.23;;
3924;SDS011;1977;52.274;10.518;2024-01-06T07:24:30;25.30;;;16.07;;
3924;SDS011;1977;52.274;10.518;2024-01-06T07:26:57;24.17;;;13.33;;
3924;SDS011;1977;52.274;10.518;2024-01-06T07:29:24;27.80;;;16.90;;
3924;SDS011;1977;52.274;10.518;2024-01-06T07:31:52;23.87;;;15.93;;
3924;SDS011;1977;52.274;10.518;2024-01-06T07:34:19;26.83;;;15.37;;
3924;SDS011;1977;52.274;10.518;2024-01-06T07:36:46;24.87;;;15.87;;
3924;SDS011;1977;52.274;10.518;2024-01-06T07:39:12;23.87;;;15.40;;
3924;SDS011;1977;52.274;10.518;2024-01-06T07:41:39;28.70;;;16.80;;
3924;SDS011;1977;52.274;10.518;2024-01-06T07:44:06;29.30;;;17.80;;
3924;SDS011;1977;52.274;10.518;2024-01-06T07:46:33;27.13;;;16.43;;
3924;SDS011;1977;52.274;10.518;2024-01-06T07:49:03;27.03;;;16.20;;
3924;SDS011;1977;52.274;10.518;2024-01-06T07:51:30;28.10;;;16.20;;
3924;SDS011;1977;52.274;10.518;2024-01-06T07:53:57;24.37;;;15.13;;
3924;SDS011;1977;52.274;10.518;2024-01-06T07:56:24;23.60;;;14.73;;
3924;SDS011;1977;52.274;10.518;2024-01-06T07:58:51;23.90;;;14.50;;
3924;SDS011;1977;52.274;10.518;2024-01-06T08:01:18;24.97;;;14.77;;
3924;SDS011;1977;52.274;10.518;2024-01-06T08:03:46;26.83;;;14.23;;
3924;SDS011;1977;52.274;10.518;2024-01-06T08:06:15;26.03;;;15.97;;
3924;SDS011;1977;52.274;10.518;2024-01-06T08:08:42;30.30;;;17.67;;
3924;SDS011;1977;52.274;10.518;2024-01-06T08:11:09;30.33;;;17.30;;
3924;SDS011;1977;52.274;10.518;2024-01-06T08:13:36;24.00;;;16.20;;
3924;SDS011;1977;52.274;10.518;2024-01-06T08:16:03;28.33;;;16.20;;
3924;SDS011;1977;52.274;10.518;2024-01-06T08:18:33;25.07;;;16.23;;
3924;SDS011;1977;52.274;10.518;2024-01-06T08:21:00;25.73;;;14.57;;
3924;SDS011;1977;52.274;10.518;2024-01-06T08:23:28;27.00;;;16.57;;
3924;SDS011;1977;52.274;10.518;2024-01-06T08:25:55;23.87;;;15.33;;
3924;SDS011;1977;52.274;10.518;2024-01-06T08:28:22;25.60;;;16.00;;
3924;SDS011;1977;52.274;10.518;2024-01-06T08:30:49;22.57;;;14.37;;
3924;SDS011;1977;52.274;10.518;2024-01-06T08:33:16;23.67;;;14.67;;
3924;SDS011;1977;52.274;10.518;2024-01-06T08:35:43;25.60;;;15.60;;
3924;SDS011;1977;52.274;10.518;2024-01-06T08:38:10;24.93;;;13.43;;
3924;SDS011;1977;52.274;10.518;2024-01-06T08:40:38;23.70;;;14.40;;
3924;SDS011;1977;52.274;10.518;2024-01-06T08:43:05;24.10;;;13.03;;
3924;SDS011;1977;52.274;10.518;2024-01-06T08:45:32;21.03;;;13.03;;
3924;SDS011;1977;52.274;10.518;2024-01-06T08:47:58;22.55;;;12.98;;
3924;SDS011;1977;52.274;10.518;2024-01-06T08:50:25;20.70;;;12.47;;
3924;SDS011;1977;52.274;10.518;2024-01-06T08:52:52;23.33;;;13.60;;
3924;SDS011;1977;52.274;10.518;2024-01-06T08:55:19;19.77;;;12.83;;
3924;SDS011;1977;52.274;10.518;2024-01-06T08:57:47;21.30;;;13.00;;
3924;SDS011;1977;52.274;10.518;2024-01-06T09:00:14;23.53;;;13.30;;
3924;SDS011;1977;52.274;10.518;2024-01-06T09:02:42;20.67;;;12.57;;
3924;SDS011;1977;52.274;10.518;2024-01-06T09:05:09;23.10;;;13.23;;
3924;SDS011;1977;52.274;10.518;2024-01-06T09:07:36;21.23;;;14.63;;
3924;SDS011;1977;52.274;10.518;2024-01-06T09:10:02;20.20;;;13.60;;
3924;SDS011;1977;52.274;10.518;2024-01-06T09:12:30;19.80;;;14.17;;
3924;SDS011;1977;52.274;10.518;2024-01-06T09:14:58;29.27;;;14.53;;
3924;SDS011;1977;52.274;10.518;2024-01-06T09:17:25;19.73;;;13.33;;
3924;SDS011;1977;52.274;10.518;2024-01-06T09:19:51;25.03;;;14.67;;
3924;SDS011;1977;52.274;10.518;2024-01-06T09:22:19;24.50;;;14.23;;
3924;SDS011;1977;52.274;10.518;2024-01-06T09:24:46;26.47;;;13.87;;
3924;SDS011;1977;52.274;10.518;2024-01-06T09:27:13;24.23;;;15.83;;
3924;SDS011;1977;52.274;10.518;2024-01-06T09:29:40;23.50;;;14.20;;
3924;SDS011;1977;52.274;10.518;2024-01-06T09:32:09;25.87;;;13.90;;
3924;SDS011;1977;52.274;10.518;2024-01-06T09:34:35;23.40;;;15.27;;
3924;SDS011;1977;52.274;10.518;2024-01-06T09:37:02;26.30;;;14.00;;
3924;SDS011;1977;52.274;10.518;2024-01-06T09:39:29;29.13;;;15.97;;
3924;SDS011;1977;52.274;10.518;2024-01-06T09:41:56;22.43;;;15.03;;
3924;SDS011;1977;52.274;10.518;2024-01-06T09:44:24;20.77;;;14.27;;
3924;SDS011;1977;52.274;10.518;2024-01-06T09:46:51;25.00;;;13.83;;
3924;SDS011;1977;52.274;10.518;2024-01-06T09:49:21;26.97;;;15.67;;
3924;SDS011;1977;52.274;10.518;2024-01-06T09:51:54;28.63;;;16.03;;
3924;SDS011;1977;52.274;10.518;2024-01-06T09:54:24;22.47;;;15.20;;
3924;SDS011;1977;52.274;10.518;2024-01-06T09:56:58;28.33;;;16.33;;
3924;SDS011;1977;52.274;10.518;2024-01-06T09:59:25;28.30;;;17.00;;
3924;SDS011;1977;52.274;10.518;2024-01-06T10:01:56;28.20;;;16.93;;
3924;SDS011;1977;52.274;10.518;2024-01-06T10:04:25;31.40;;;17.17;;
3924;SDS011;1977;52.274;10.518;2024-01-06T10:06:52;29.23;;;16.17;;
3924;SDS011;1977;52.274;10.518;2024-01-06T10:09:19;29.00;;;16.57;;
3924;SDS011;1977;52.274;10.518;2024-01-06T10:11:54;27.17;;;15.80;;
3924;SDS011;1977;52.274;10.518;2024-01-06T10:14:22;28.60;;;16.50;;
3924;SDS011;1977;52.274;10.518;2024-01-06T10:16:49;30.80;;;17.23;;
3924;SDS011;1977;52.274;10.518;2024-01-06T10:19:17;28.40;;;16.17;;
3924;SDS011;1977;52.274;10.518;2024-01-06T10:21:45;33.27;;;16.60;;
3924;SDS011;1977;52.274;10.518;2024-01-06T10:24:12;26.20;;;15.23;;
3924;SDS011;1977;52.274;10.518;2024-01-06T10:26:39;30.80;;;16.87;;
3924;SDS011;1977;52.274;10.518;2024-01-06T10:29:06;27.13;;;16.73;;
3924;SDS011;1977;52.274;10.518;2024-01-06T10:31:33;21.53;;;14.20;;
3924;SDS011;1977;52.274;10.518;2024-01-06T10:34:00;31.73;;;17.07;;
3924;SDS011;1977;52.274;10.518;2024-01-06T10:36:27;27.33;;;16.50;;
3924;SDS011;1977;52.274;10.518;2024-01-06T10:38:57;25.17;;;15.00;;
3924;SDS011;1977;52.274;10.518;2024-01-06T10:41:26;25.23;;;15.83;;
3924;SDS011;1977;52.274;10.518;2024-01-06T10:43:55;26.63;;;15.60;;
3924;SDS011;1977;52.274;10.518;2024-01-06T10:46:26;29.37;;;16.03;;
3924;SDS011;1977;52.274;10.518;2024-01-06T10:48:54;21.20;;;13.77;;
3924;SDS011;1977;52.274;10.518;2024-01-06T10:51:23;31.37;;;16.60;;
3924;SDS011;1977;52.274;10.518;2024-01-06T10:53:54;26.00;;;15.30;;
3924;SDS011;1977;52.274;10.518;2024-01-06T10:56:25;25.77;;;15.17;;
3924;SDS011;1977;52.274;10.518;2024-01-06T10:58:53;27.40;;;16.07;;
3924;SDS011;1977;52.274;10.518;2024-01-06T11:01:23;28.03;;;16.70;;
3924;SDS011;1977;52.274;10.518;2024-01-06T11:03:50;26.43;;;15.77;;
3924;SDS011;1977;52.274;10.518;2024-01-06T11:06:19;30.23;;;17.13;;
3924;SDS011;1977;52.274;10.518;2024-01-06T11:08:48;33.20;;;18.63;;
3924;SDS011;1977;52.274;10.518;2024-01-06T11:11:19;32.40;;;18.40;;
3924;SDS011;1977;52.274;10.518;2024-01-06T11:13:47;32.20;;;18.90;;
3924;SDS011;1977;52.274;10.518;2024-01-06T11:19:02;30.43;;;17.10;;
3924;SDS011;1977;52.274;10.518;2024-01-06T11:21:49;34.00;;;18.70;;
3924;SDS011;1977;52.274;10.518;2024-01-06T11:24:18;35.90;;;19.40;;
3924;SDS011;1977;52.274;10.518;2024-01-06T11:26:51;33.17;;;19.03;;
3924;SDS011;1977;52.274;10.518;2024-01-06T11:29:22;38.70;;;20.83;;
3924;SDS011;1977;52.274;10.518;2024-01-06T11:34:53;37.17;;;20.30;;
3924;SDS011;1977;52.274;10.518;2024-01-06T11:37:24;36.53;;;19.60;;
3924;SDS011;1977;52.274;10.518;2024-01-06T11:40:01;40.20;;;21.53;;
3924;SDS011;1977;52.274;10.518;2024-01-06T11:42:31;34.70;;;19.87;;
3924;SDS011;1977;52.274;10.518;2024-01-06T11:45:03;32.97;;;18.40;;
3924;SDS011;1977;52.274;10.518;2024-01-06T11:47:31;37.20;;;19.73;;
3924;SDS011;1977;52.274;10.518;2024-01-06T11:49:59;31.47;;;18.47;;
3924;SDS011;1977;52.274;10.518;2024-01-06T11:52:29;36.77;;;20.10;;
3924;SDS011;1977;52.274;10.518;2024-01-06T11:54:56;36.77;;;20.00;;
3924;SDS011;1977;52.274;10.518;2024-01-06T11:57:24;38.27;;;20.47;;
3924;SDS011;1977;52.274;10.518;2024-01-06T11:59:51;35.60;;;20.37;;
3924;SDS011;1977;52.274;10.518;2024-01-06T12:02:20;41.20;;;20.60;;
3924;SDS011;1977;52.274;10.518;2024-01-06T12:04:48;43.37;;;21.53;;
3924;SDS011;1977;52.274;10.518;2024-01-06T12:07:16;35.57;;;19.20;;
3924;SDS011;1977;52.274;10.518;2024-01-06T12:09:44;35.23;;;19.43;;
3924;SDS011;1977;52.274;10.518;2024-01-06T12:12:11;40.33;;;20.90;;
3924;SDS011;1977;52.274;10.518;2024-01-06T12:14:41;30.87;;;18.50;;
3924;SDS011;1977;52.274;10.518;2024-01-06T12:17:09;35.60;;;19.63;;
3924;SDS011;1977;52.274;10.518;2024-01-06T12:19:39;37.17;;;20.83;;
3924;SDS011;1977;52.274;10.518;2024-01-06T12:24:37;37.40;;;19.70;;
3924;SDS011;1977;52.274;10.518;2024-01-06T12:27:06;36.30;;;21.07;;
3924;SDS011;1977;52.274;10.518;2024-01-06T12:29:36;31.60;;;17.53;;
3924;SDS011;1977;52.274;10.518;2024-01-06T12:32:04;33.37;;;19.00;;
3924;SDS011;1977;52.274;10.518;2024-01-06T12:34:31;31.73;;;18.60;;
3924;SDS011;1977;52.274;10.518;2024-01-06T12:36:59;36.50;;;19.20;;
3924;SDS011;1977;52.274;10.518;2024-01-06T12:39:28;35.63;;;19.40;;
3924;SDS011;1977;52.274;10.518;2024-01-06T12:41:55;29.57;;;16.90;;
3924;SDS011;1977;52.274;10.518;2024-01-06T12:44:24;31.30;;;18.40;;
3924;SDS011;1977;52.274;10.518;2024-01-06T12:46:51;31.23;;;19.03;;
3924;SDS011;1977;52.274;10.518;2024-01-06T12:49:18;31.13;;;18.90;;
3924;SDS011;1977;52.274;10.518;2024-01-06T12:51:45;26.20;;;15.20;;
3924;SDS011;1977;52.274;10.518;2024-01-06T12:54:13;31.27;;;17.90;;
3924;SDS011;1977;52.274;10.518;2024-01-06T12:56:40;30.33;;;17.83;;
3924;SDS011;1977;52.274;10.518;2024-01-06T12:59:07;31.57;;;17.67;;
3924;SDS011;1977;52.274;10.518;2024-01-06T13:01:33;33.60;;;19.27;;
3924;SDS011;1977;52.274;10.518;2024-01-06T13:04:00;32.67;;;18.03;;
3924;SDS011;1977;52.274;10.518;2024-01-06T13:06:27;33.93;;;18.97;;
3924;SDS011;1977;52.274;10.518;2024-01-06T13:08:54;31.80;;;17.63;;
3924;SDS011;1977;52.274;10.518;2024-01-06T13:11:22;30.33;;;17.90;;
3924;SDS011;1977;52.274;10.518;2024-01-06T13:13:49;31.13;;;18.80;;
3924;SDS011;1977;52.274;10.518;2024-01-06T13:16:16;30.60;;;18.20;;
3924;SDS011;1977;52.274;10.518;2024-01-06T13:18:43;33.53;;;19.07;;
3924;SDS011;1977;52.274;10.518;2024-01-06T13:21:10;32.20;;;18.57;;
3924;SDS011;1977;52.274;10.518;2024-01-06T13:23:36;37.73;;;18.50;;
3924;SDS011;1977;52.274;10.518;2024-01-06T13:26:03;39.33;;;18.33;;
3924;SDS011;1977;52.274;10.518;2024-01-06T13:28:31;37.60;;;19.87;;
3924;SDS011;1977;52.274;10.518;2024-01-06T13:30:58;40.27;;;20.67;;
3924;SDS011;1977;52.274;10.518;2024-01-06T13:33:25;36.13;;;19.93;;
3924;SDS011;1977;52.274;10.518;2024-01-06T13:35:51;38.87;;;19.00;;
3924;SDS011;1977;52.274;10.518;2024-01-06T13:38:19;38.63;;;19.50;;
3924;SDS011;1977;52.274;10.518;2024-01-06T13:40:47;37.60;;;21.07;;
3924;SDS011;1977;52.274;10.518;2024-01-06T13:43:14;45.93;;;20.37;;
3924;SDS011;1977;52.274;10.518;2024-01-06T13:45:43;42.83;;;23.40;;
3924;SDS011;1977;52.274;10.518;2024-01-06T13:48:10;40.40;;;19.40;;
3924;SDS011;1977;52.274;10.518;2024-01-06T13:50:37;40.90;;;20.30;;
3924;SDS011;1977;52.274;10.518;2024-01-06T13:53:04;45.00;;;22.13;;
3924;SDS011;1977;52.274;10.518;2024-01-06T13:55:31;39.23;;;22.03;;
3924;SDS011;1977;52.274;10.518;2024-01-06T13:57:59;44.03;;;20.63;;
3924;SDS011;1977;52.274;10.518;2024-01-06T14:00:26;44.13;;;22.70;;
3924;SDS011;1977;52.274;10.518;2024-01-06T14:02:54;40.93;;;21.47;;
3924;SDS011;1977;52.274;10.518;2024-01-06T14:05:21;44.80;;;21.23;;
3924;SDS011;1977;52.274;10.518;2024-01-06T14:07:48;47.87;;;22.07;;
3924;SDS011;1977;52.274;10.518;2024-01-06T14:10:15;44.13;;;21.03;;
3924;SDS011;1977;52.274;10.518;2024-01-06T14:12:42;41.60;;;22.17;;
3924;SDS011;1977;52.274;10.518;2024-01-06T14:15:09;48.53;;;22.00;;
3924;SDS011;1977;52.274;10.518;2024-01-06T14:17:36;43.83;;;21.60;;
3924;SDS011;1977;52.274;10.518;2024-01-06T14:20:06;44.43;;;23.07;;
3924;SDS011;1977;52.274;10.518;2024-01-06T14:22:34;50.60;;;22.07;;
3924;SDS011;1977;52.274;10.518;2024-01-06T14:25:01;45.60;;;22.97;;
3924;SDS011;1977;52.274;10.518;2024-01-06T14:27:28;43.77;;;24.07;;
3924;SDS011;1977;52.274;10.518;2024-01-06T14:29:55;43.23;;;23.33;;
3924;SDS011;1977;52.274;10.518;2024-01-06T14:32:22;50.00;;;22.87;;
3924;SDS011;1977;52.274;10.518;2024-01-06T14:34:49;44.23;;;21.87;;
3924;SDS011;1977;52.274;10.518;2024-01-06T14:37:18;57.47;;;24.07;;
3924;SDS011;1977;52.274;10.518;2024-01-06T14:39:44;45.23;;;21.23;;
3924;SDS011;1977;52.274;10.518;2024-01-06T14:42:11;47.33;;;23.37;;